sensor_id;sensor_type;location;lat;lon;timestamp;P1;durP1;ratioP1;P2;durP2;ratioP2
68806;SDS011;55800;54.272;18.558;2022-12-29T00:00:18;10.85;;;7.55;;
68806;SDS011;55800;54.272;18.558;2022-12-29T00:05:38;10.70;;;5.50;;
68806;SDS011;55800;54.272;18.558;2022-12-29T00:08:07;16.85;;;7.30;;
68806;SDS011;55800;54.272;18.558;2022-12-29T00:10:36;12.57;;;5.80;;
68806;SDS011;55800;54.272;18.558;2022-12-29T00:13:06;7.80;;;5.07;;
68806;SDS011;55800;54.272;18.558;2022-12-29T00:15:53;8.55;;;4.85;;
68806;SDS011;55800;54.272;18.558;2022-12-29T00:18:24;9.10;;;4.93;;
68806;SDS011;55800;54.272;18.558;2022-12-29T00:20:56;10.02;;;5.70;;
68806;SDS011;55800;54.272;18.558;2022-12-29T00:23:43;9.30;;;5.10;;
68806;SDS011;55800;54.272;18.558;2022-12-29T00:26:30;10.38;;;6.30;;
68806;SDS011;55800;54.272;18.558;2022-12-29T00:29:17;6.97;;;4.32;;
68806;SDS011;55800;54.272;18.558;2022-12-29T00:32:04;7.60;;;5.07;;
68806;SDS011;55800;54.272;18.558;2022-12-29T00:34:54;8.50;;;5.05;;
68806;SDS011;55800;54.272;18.558;2022-12-29T00:37:40;7.60;;;4.70;;
68806;SDS011;55800;54.272;18.558;2022-12-29T00:40:29;6.82;;;5.38;;
68806;SDS011;55800;54.272;18.558;2022-12-29T00:43:15;7.55;;;4.20;;
68806;SDS011;55800;54.272;18.558;2022-12-29T00:46:02;7.68;;;5.38;;
68806;SDS011;55800;54.272;18.558;2022-12-29T00:48:32;7.40;;;4.75;;
68806;SDS011;55800;54.272;18.558;2022-12-29T00:51:20;7.13;;;4.22;;
68806;SDS011;55800;54.272;18.558;2022-12-29T00:53:50;6.82;;;4.55;;
68806;SDS011;55800;54.272;18.558;2022-12-29T00:56:19;7.57;;;4.32;;
68806;SDS011;55800;54.272;18.558;2022-12-29T00:58:48;6.38;;;4.45;;
68806;SDS011;55800;54.272;18.558;2022-12-29T01:01:18;6.95;;;4.30;;
68806;SDS011;55800;54.272;18.558;2022-12-29T01:03:47;6.97;;;5.03;;
68806;SDS011;55800;54.272;18.558;2022-12-29T01:06:18;6.88;;;3.88;;
68806;SDS011;55800;54.272;18.558;2022-12-29T01:08:50;6.10;;;3.97;;
68806;SDS011;55800;54.272;18.558;2022-12-29T01:11:34;8.32;;;3.90;;
68806;SDS011;55800;54.272;18.558;2022-12-29T01:14:03;6.65;;;4.68;;
68806;SDS011;55800;54.272;18.558;2022-12-29T01:16:33;5.60;;;4.68;;
68806;SDS011;55800;54.272;18.558;2022-12-29T01:21:34;7.13;;;4.63;;
68806;SDS011;55800;54.272;18.558;2022-12-29T01:24:03;6.22;;;3.95;;
68806;SDS011;55800;54.272;18.558;2022-12-29T01:26:33;5.60;;;3.95;;
68806;SDS011;55800;54.272;18.558;2022-12-29T01:29:02;6.50;;;4.13;;
68806;SDS011;55800;54.272;18.558;2022-12-29T01:31:32;6.43;;;3.75;;
68806;SDS011;55800;54.272;18.558;2022-12-29T01:34:01;8.75;;;3.80;;
68806;SDS011;55800;54.272;18.558;2022-12-29T01:36:32;6.45;;;3.72;;
68806;SDS011;55800;54.272;18.558;2022-12-29T01:39:02;5.55;;;3.83;;
68806;SDS011;55800;54.272;18.558;2022-12-29T01:41:32;4.22;;;3.67;;
68806;SDS011;55800;54.272;18.558;2022-12-29T01:44:01;4.75;;;3.80;;
68806;SDS011;55800;54.272;18.558;2022-12-29T01:46:31;4.38;;;3.22;;
68806;SDS011;55800;54.272;18.558;2022-12-29T01:49:05;5.38;;;3.28;;
68806;SDS011;55800;54.272;18.558;2022-12-29T01:51:43;5.25;;;3.13;;
68806;SDS011;55800;54.272;18.558;2022-12-29T01:54:16;5.18;;;3.22;;
68806;SDS011;55800;54.272;18.558;2022-12-29T01:56:50;4.72;;;3.75;;
68806;SDS011;55800;54.272;18.558;2022-12-29T01:59:21;4.82;;;3.38;;
68806;SDS011;55800;54.272;18.558;2022-12-29T02:01:54;4.85;;;4.22;;
68806;SDS011;55800;54.272;18.558;2022-12-29T02:04:25;4.53;;;2.85;;
68806;SDS011;55800;54.272;18.558;2022-12-29T02:06:59;17.50;;;3.10;;
68806;SDS011;55800;54.272;18.558;2022-12-29T02:09:33;5.07;;;3.65;;
68806;SDS011;55800;54.272;18.558;2022-12-29T02:14:33;3.65;;;2.55;;
68806;SDS011;55800;54.272;18.558;2022-12-29T02:17:04;3.92;;;2.67;;
68806;SDS011;55800;54.272;18.558;2022-12-29T02:26:11;4.90;;;2.85;;
68806;SDS011;55800;54.272;18.558;2022-12-29T02:29:13;4.88;;;3.70;;
68806;SDS011;55800;54.272;18.558;2022-12-29T02:32:06;4.60;;;2.65;;
68806;SDS011;55800;54.272;18.558;2022-12-29T02:34:41;4.03;;;2.78;;
68806;SDS011;55800;54.272;18.558;2022-12-29T02:37:22;8.60;;;3.47;;
68806;SDS011;55800;54.272;18.558;2022-12-29T02:39:56;4.13;;;2.90;;
68806;SDS011;55800;54.272;18.558;2022-12-29T02:42:34;4.80;;;3.17;;
68806;SDS011;55800;54.272;18.558;2022-12-29T02:45:13;4.50;;;3.13;;
68806;SDS011;55800;54.272;18.558;2022-12-29T02:47:49;4.90;;;3.47;;
68806;SDS011;55800;54.272;18.558;2022-12-29T02:50:25;4.25;;;3.35;;
68806;SDS011;55800;54.272;18.558;2022-12-29T02:53:01;4.53;;;2.90;;
68806;SDS011;55800;54.272;18.558;2022-12-29T02:55:34;4.18;;;3.17;;
68806;SDS011;55800;54.272;18.558;2022-12-29T02:58:08;5.53;;;3.65;;
68806;SDS011;55800;54.272;18.558;2022-12-29T03:00:51;5.43;;;3.85;;
68806;SDS011;55800;54.272;18.558;2022-12-29T03:03:37;5.40;;;4.10;;
68806;SDS011;55800;54.272;18.558;2022-12-29T03:06:22;5.25;;;3.58;;
68806;SDS011;55800;54.272;18.558;2022-12-29T03:09:02;5.20;;;3.58;;
68806;SDS011;55800;54.272;18.558;2022-12-29T03:11:47;7.20;;;3.30;;
68806;SDS011;55800;54.272;18.558;2022-12-29T03:14:39;5.20;;;2.75;;
68806;SDS011;55800;54.272;18.558;2022-12-29T03:17:36;4.88;;;3.50;;
68806;SDS011;55800;54.272;18.558;2022-12-29T03:20:14;7.65;;;5.10;;
68806;SDS011;55800;54.272;18.558;2022-12-29T03:22:53;8.05;;;5.10;;
68806;SDS011;55800;54.272;18.558;2022-12-29T03:25:31;6.70;;;5.37;;
68806;SDS011;55800;54.272;18.558;2022-12-29T03:28:08;7.88;;;5.00;;
68806;SDS011;55800;54.272;18.558;2022-12-29T03:33:47;8.70;;;6.03;;
68806;SDS011;55800;54.272;18.558;2022-12-29T03:36:20;9.38;;;6.47;;
68806;SDS011;55800;54.272;18.558;2022-12-29T03:39:08;9.25;;;6.32;;
68806;SDS011;55800;54.272;18.558;2022-12-29T03:41:41;8.38;;;5.82;;
68806;SDS011;55800;54.272;18.558;2022-12-29T03:44:13;9.02;;;7.38;;
68806;SDS011;55800;54.272;18.558;2022-12-29T03:46:42;11.20;;;6.65;;
68806;SDS011;55800;54.272;18.558;2022-12-29T03:49:12;10.70;;;7.82;;
68806;SDS011;55800;54.272;18.558;2022-12-29T03:51:42;9.82;;;6.90;;
68806;SDS011;55800;54.272;18.558;2022-12-29T03:54:12;12.05;;;7.75;;
68806;SDS011;55800;54.272;18.558;2022-12-29T03:59:12;12.88;;;7.18;;
68806;SDS011;55800;54.272;18.558;2022-12-29T04:01:41;11.68;;;7.72;;
68806;SDS011;55800;54.272;18.558;2022-12-29T04:04:10;7.63;;;5.07;;
68806;SDS011;55800;54.272;18.558;2022-12-29T04:06:40;10.85;;;7.53;;
68806;SDS011;55800;54.272;18.558;2022-12-29T04:09:11;13.25;;;8.52;;
68806;SDS011;55800;54.272;18.558;2022-12-29T04:11:44;10.90;;;7.40;;
68806;SDS011;55800;54.272;18.558;2022-12-29T04:16:44;11.65;;;8.50;;
68806;SDS011;55800;54.272;18.558;2022-12-29T04:19:13;14.38;;;8.45;;
68806;SDS011;55800;54.272;18.558;2022-12-29T04:21:46;10.82;;;7.72;;
68806;SDS011;55800;54.272;18.558;2022-12-29T04:24:16;15.55;;;8.57;;
68806;SDS011;55800;54.272;18.558;2022-12-29T04:26:48;11.48;;;7.40;;
68806;SDS011;55800;54.272;18.558;2022-12-29T04:29:24;15.85;;;8.18;;
68806;SDS011;55800;54.272;18.558;2022-12-29T04:32:13;12.95;;;8.38;;
68806;SDS011;55800;54.272;18.558;2022-12-29T04:34:48;12.57;;;9.38;;
68806;SDS011;55800;54.272;18.558;2022-12-29T04:39:48;12.60;;;8.63;;
68806;SDS011;55800;54.272;18.558;2022-12-29T04:42:17;13.60;;;8.07;;
68806;SDS011;55800;54.272;18.558;2022-12-29T04:44:48;14.18;;;8.43;;
68806;SDS011;55800;54.272;18.558;2022-12-29T04:47:33;13.13;;;8.60;;
68806;SDS011;55800;54.272;18.558;2022-12-29T04:50:22;14.38;;;8.30;;
68806;SDS011;55800;54.272;18.558;2022-12-29T04:53:08;14.77;;;10.35;;
68806;SDS011;55800;54.272;18.558;2022-12-29T04:55:37;13.68;;;9.15;;
68806;SDS011;55800;54.272;18.558;2022-12-29T04:58:07;16.98;;;9.18;;
68806;SDS011;55800;54.272;18.558;2022-12-29T05:00:37;12.88;;;9.93;;
68806;SDS011;55800;54.272;18.558;2022-12-29T05:03:06;14.93;;;10.30;;
68806;SDS011;55800;54.272;18.558;2022-12-29T05:05:38;15.68;;;10.10;;
68806;SDS011;55800;54.272;18.558;2022-12-29T05:08:10;14.35;;;9.88;;
68806;SDS011;55800;54.272;18.558;2022-12-29T05:10:43;14.80;;;9.55;;
68806;SDS011;55800;54.272;18.558;2022-12-29T05:13:16;13.55;;;9.20;;
68806;SDS011;55800;54.272;18.558;2022-12-29T05:15:47;22.70;;;8.95;;
68806;SDS011;55800;54.272;18.558;2022-12-29T05:18:18;14.05;;;9.52;;
68806;SDS011;55800;54.272;18.558;2022-12-29T05:20:48;15.25;;;9.60;;
68806;SDS011;55800;54.272;18.558;2022-12-29T05:23:21;16.02;;;10.50;;
68806;SDS011;55800;54.272;18.558;2022-12-29T05:25:56;13.32;;;9.25;;
68806;SDS011;55800;54.272;18.558;2022-12-29T05:28:30;15.40;;;10.18;;
68806;SDS011;55800;54.272;18.558;2022-12-29T05:33:39;13.32;;;8.63;;
68806;SDS011;55800;54.272;18.558;2022-12-29T05:36:09;14.55;;;9.57;;
68806;SDS011;55800;54.272;18.558;2022-12-29T05:38:43;13.23;;;9.43;;
68806;SDS011;55800;54.272;18.558;2022-12-29T05:41:13;14.07;;;10.18;;
68806;SDS011;55800;54.272;18.558;2022-12-29T05:44:11;15.70;;;10.10;;
68806;SDS011;55800;54.272;18.558;2022-12-29T05:47:01;18.13;;;10.05;;
68806;SDS011;55800;54.272;18.558;2022-12-29T05:49:42;17.42;;;10.57;;
68806;SDS011;55800;54.272;18.558;2022-12-29T05:52:26;11.82;;;9.18;;
68806;SDS011;55800;54.272;18.558;2022-12-29T05:54:57;18.00;;;10.73;;
68806;SDS011;55800;54.272;18.558;2022-12-29T05:57:29;11.93;;;9.40;;
68806;SDS011;55800;54.272;18.558;2022-12-29T06:00:12;13.45;;;10.55;;
68806;SDS011;55800;54.272;18.558;2022-12-29T06:02:44;14.27;;;10.30;;
68806;SDS011;55800;54.272;18.558;2022-12-29T06:05:16;17.52;;;10.27;;
68806;SDS011;55800;54.272;18.558;2022-12-29T06:10:17;20.50;;;10.32;;
68806;SDS011;55800;54.272;18.558;2022-12-29T06:12:53;13.80;;;8.98;;
68806;SDS011;55800;54.272;18.558;2022-12-29T06:15:22;15.20;;;8.82;;
68806;SDS011;55800;54.272;18.558;2022-12-29T06:17:53;14.45;;;8.93;;
68806;SDS011;55800;54.272;18.558;2022-12-29T06:20:22;14.55;;;9.55;;
68806;SDS011;55800;54.272;18.558;2022-12-29T06:22:52;13.60;;;9.68;;
68806;SDS011;55800;54.272;18.558;2022-12-29T06:25:23;15.50;;;10.25;;
68806;SDS011;55800;54.272;18.558;2022-12-29T06:27:53;11.90;;;8.13;;
68806;SDS011;55800;54.272;18.558;2022-12-29T06:32:52;14.13;;;6.63;;
68806;SDS011;55800;54.272;18.558;2022-12-29T06:35:23;12.68;;;8.73;;
68806;SDS011;55800;54.272;18.558;2022-12-29T06:40:21;10.82;;;7.60;;
68806;SDS011;55800;54.272;18.558;2022-12-29T06:43:08;15.57;;;9.63;;
68806;SDS011;55800;54.272;18.558;2022-12-29T06:45:52;12.02;;;7.53;;
68806;SDS011;55800;54.272;18.558;2022-12-29T06:50:50;19.40;;;9.60;;
68806;SDS011;55800;54.272;18.558;2022-12-29T06:53:20;11.95;;;8.90;;
68806;SDS011;55800;54.272;18.558;2022-12-29T06:55:50;13.88;;;9.82;;
68806;SDS011;55800;54.272;18.558;2022-12-29T06:58:19;14.63;;;8.65;;
68806;SDS011;55800;54.272;18.558;2022-12-29T07:00:48;12.60;;;8.73;;
68806;SDS011;55800;54.272;18.558;2022-12-29T07:03:18;15.77;;;8.98;;
68806;SDS011;55800;54.272;18.558;2022-12-29T07:05:47;14.85;;;8.55;;
68806;SDS011;55800;54.272;18.558;2022-12-29T07:08:16;13.20;;;9.00;;
68806;SDS011;55800;54.272;18.558;2022-12-29T07:10:46;15.88;;;8.73;;
68806;SDS011;55800;54.272;18.558;2022-12-29T07:13:16;13.98;;;9.32;;
68806;SDS011;55800;54.272;18.558;2022-12-29T07:15:46;12.02;;;8.68;;
68806;SDS011;55800;54.272;18.558;2022-12-29T07:18:15;14.57;;;9.88;;
68806;SDS011;55800;54.272;18.558;2022-12-29T07:20:47;12.60;;;8.30;;
68806;SDS011;55800;54.272;18.558;2022-12-29T07:23:17;16.88;;;8.98;;
68806;SDS011;55800;54.272;18.558;2022-12-29T07:25:46;13.05;;;8.48;;
68806;SDS011;55800;54.272;18.558;2022-12-29T07:28:17;15.07;;;10.57;;
68806;SDS011;55800;54.272;18.558;2022-12-29T07:30:46;15.55;;;8.63;;
68806;SDS011;55800;54.272;18.558;2022-12-29T07:33:15;13.63;;;9.73;;
68806;SDS011;55800;54.272;18.558;2022-12-29T07:35:44;10.38;;;6.85;;
68806;SDS011;55800;54.272;18.558;2022-12-29T07:38:13;11.13;;;8.23;;
68806;SDS011;55800;54.272;18.558;2022-12-29T07:40:43;11.38;;;8.32;;
68806;SDS011;55800;54.272;18.558;2022-12-29T07:43:12;11.13;;;6.80;;
68806;SDS011;55800;54.272;18.558;2022-12-29T07:45:54;11.00;;;8.95;;
68806;SDS011;55800;54.272;18.558;2022-12-29T07:48:24;11.70;;;8.98;;
68806;SDS011;55800;54.272;18.558;2022-12-29T07:50:53;16.38;;;9.15;;
68806;SDS011;55800;54.272;18.558;2022-12-29T07:53:23;14.32;;;9.10;;
68806;SDS011;55800;54.272;18.558;2022-12-29T07:55:52;14.32;;;9.07;;
68806;SDS011;55800;54.272;18.558;2022-12-29T07:58:21;15.80;;;9.95;;
68806;SDS011;55800;54.272;18.558;2022-12-29T08:00:52;14.77;;;9.70;;
68806;SDS011;55800;54.272;18.558;2022-12-29T08:03:23;10.05;;;6.97;;
68806;SDS011;55800;54.272;18.558;2022-12-29T08:05:53;13.25;;;9.13;;
68806;SDS011;55800;54.272;18.558;2022-12-29T08:08:22;13.48;;;9.35;;
68806;SDS011;55800;54.272;18.558;2022-12-29T08:10:51;18.33;;;8.55;;
68806;SDS011;55800;54.272;18.558;2022-12-29T08:13:20;11.27;;;9.48;;
68806;SDS011;55800;54.272;18.558;2022-12-29T08:15:50;17.45;;;9.43;;
68806;SDS011;55800;54.272;18.558;2022-12-29T08:18:20;14.98;;;8.88;;
68806;SDS011;55800;54.272;18.558;2022-12-29T08:20:50;13.40;;;9.90;;
68806;SDS011;55800;54.272;18.558;2022-12-29T08:23:22;13.05;;;9.05;;
68806;SDS011;55800;54.272;18.558;2022-12-29T08:25:56;12.27;;;7.90;;
68806;SDS011;55800;54.272;18.558;2022-12-29T08:28:26;14.88;;;8.77;;
68806;SDS011;55800;54.272;18.558;2022-12-29T08:33:27;12.85;;;9.27;;
68806;SDS011;55800;54.272;18.558;2022-12-29T08:35:58;14.05;;;9.73;;
68806;SDS011;55800;54.272;18.558;2022-12-29T08:38:28;15.35;;;8.60;;
68806;SDS011;55800;54.272;18.558;2022-12-29T08:40:58;10.82;;;8.57;;
68806;SDS011;55800;54.272;18.558;2022-12-29T08:43:29;16.50;;;8.85;;
68806;SDS011;55800;54.272;18.558;2022-12-29T08:45:58;12.18;;;9.35;;
68806;SDS011;55800;54.272;18.558;2022-12-29T08:48:29;15.50;;;9.70;;
68806;SDS011;55800;54.272;18.558;2022-12-29T08:50:58;14.00;;;9.25;;
68806;SDS011;55800;54.272;18.558;2022-12-29T08:53:28;8.80;;;6.80;;
68806;SDS011;55800;54.272;18.558;2022-12-29T08:55:57;12.25;;;9.43;;
68806;SDS011;55800;54.272;18.558;2022-12-29T08:58:41;18.20;;;9.23;;
68806;SDS011;55800;54.272;18.558;2022-12-29T09:01:10;14.23;;;9.85;;
68806;SDS011;55800;54.272;18.558;2022-12-29T09:03:41;12.18;;;8.93;;
68806;SDS011;55800;54.272;18.558;2022-12-29T09:06:30;13.68;;;8.77;;
68806;SDS011;55800;54.272;18.558;2022-12-29T09:09:06;13.95;;;8.30;;
68806;SDS011;55800;54.272;18.558;2022-12-29T09:11:35;12.45;;;9.07;;
68806;SDS011;55800;54.272;18.558;2022-12-29T09:14:05;11.30;;;8.00;;
68806;SDS011;55800;54.272;18.558;2022-12-29T09:16:34;13.35;;;8.68;;
68806;SDS011;55800;54.272;18.558;2022-12-29T09:19:06;13.27;;;10.25;;
68806;SDS011;55800;54.272;18.558;2022-12-29T09:21:35;12.38;;;6.82;;
68806;SDS011;55800;54.272;18.558;2022-12-29T09:24:05;18.08;;;11.30;;
68806;SDS011;55800;54.272;18.558;2022-12-29T09:26:35;10.15;;;7.35;;
68806;SDS011;55800;54.272;18.558;2022-12-29T09:29:12;10.60;;;7.97;;
68806;SDS011;55800;54.272;18.558;2022-12-29T09:31:42;12.85;;;9.15;;
68806;SDS011;55800;54.272;18.558;2022-12-29T09:34:13;12.38;;;7.18;;
68806;SDS011;55800;54.272;18.558;2022-12-29T09:36:42;10.48;;;8.25;;
68806;SDS011;55800;54.272;18.558;2022-12-29T09:39:12;9.75;;;8.15;;
68806;SDS011;55800;54.272;18.558;2022-12-29T09:41:43;14.43;;;8.80;;
68806;SDS011;55800;54.272;18.558;2022-12-29T09:44:19;11.23;;;7.15;;
68806;SDS011;55800;54.272;18.558;2022-12-29T09:46:53;12.93;;;7.80;;
68806;SDS011;55800;54.272;18.558;2022-12-29T09:49:27;11.43;;;7.55;;
68806;SDS011;55800;54.272;18.558;2022-12-29T09:52:11;12.23;;;8.23;;
68806;SDS011;55800;54.272;18.558;2022-12-29T09:54:46;9.57;;;6.90;;
68806;SDS011;55800;54.272;18.558;2022-12-29T09:57:33;9.77;;;6.25;;
68806;SDS011;55800;54.272;18.558;2022-12-29T10:00:08;11.52;;;7.28;;
68806;SDS011;55800;54.272;18.558;2022-12-29T10:02:42;10.75;;;6.50;;
68806;SDS011;55800;54.272;18.558;2022-12-29T10:05:20;10.32;;;6.15;;
68806;SDS011;55800;54.272;18.558;2022-12-29T10:08:06;8.75;;;6.45;;
68806;SDS011;55800;54.272;18.558;2022-12-29T10:10:50;14.73;;;7.45;;
68806;SDS011;55800;54.272;18.558;2022-12-29T10:13:26;7.97;;;4.93;;
68806;SDS011;55800;54.272;18.558;2022-12-29T10:16:05;15.02;;;7.20;;
68806;SDS011;55800;54.272;18.558;2022-12-29T10:18:46;12.15;;;6.63;;
68806;SDS011;55800;54.272;18.558;2022-12-29T10:21:36;9.13;;;6.43;;
68806;SDS011;55800;54.272;18.558;2022-12-29T10:24:17;10.30;;;6.57;;
68806;SDS011;55800;54.272;18.558;2022-12-29T10:26:50;10.88;;;6.40;;
68806;SDS011;55800;54.272;18.558;2022-12-29T10:29:20;11.38;;;6.85;;
68806;SDS011;55800;54.272;18.558;2022-12-29T10:31:57;9.85;;;6.55;;
68806;SDS011;55800;54.272;18.558;2022-12-29T10:34:28;11.32;;;6.88;;
68806;SDS011;55800;54.272;18.558;2022-12-29T10:37:04;9.90;;;5.38;;
68806;SDS011;55800;54.272;18.558;2022-12-29T10:39:40;10.02;;;6.18;;
68806;SDS011;55800;54.272;18.558;2022-12-29T10:42:15;8.55;;;5.70;;
68806;SDS011;55800;54.272;18.558;2022-12-29T10:44:53;8.63;;;6.00;;
68806;SDS011;55800;54.272;18.558;2022-12-29T10:47:24;12.85;;;5.82;;
68806;SDS011;55800;54.272;18.558;2022-12-29T10:49:57;9.57;;;4.85;;
68806;SDS011;55800;54.272;18.558;2022-12-29T10:52:31;9.27;;;5.72;;
68806;SDS011;55800;54.272;18.558;2022-12-29T10:55:04;9.60;;;5.05;;
68806;SDS011;55800;54.272;18.558;2022-12-29T10:57:43;10.15;;;6.15;;
68806;SDS011;55800;54.272;18.558;2022-12-29T11:00:14;9.30;;;6.00;;
68806;SDS011;55800;54.272;18.558;2022-12-29T11:05:51;9.25;;;5.07;;
68806;SDS011;55800;54.272;18.558;2022-12-29T11:08:26;8.93;;;5.45;;
68806;SDS011;55800;54.272;18.558;2022-12-29T11:11:01;11.82;;;6.00;;
68806;SDS011;55800;54.272;18.558;2022-12-29T11:13:32;11.77;;;6.47;;
68806;SDS011;55800;54.272;18.558;2022-12-29T11:16:05;9.30;;;5.78;;
68806;SDS011;55800;54.272;18.558;2022-12-29T11:18:36;9.15;;;5.90;;
68806;SDS011;55800;54.272;18.558;2022-12-29T11:21:07;7.18;;;4.50;;
68806;SDS011;55800;54.272;18.558;2022-12-29T11:23:57;10.60;;;5.60;;
68806;SDS011;55800;54.272;18.558;2022-12-29T11:26:28;11.68;;;5.40;;
68806;SDS011;55800;54.272;18.558;2022-12-29T11:29:08;8.23;;;5.22;;
68806;SDS011;55800;54.272;18.558;2022-12-29T11:31:56;8.00;;;4.70;;
68806;SDS011;55800;54.272;18.558;2022-12-29T11:34:30;9.15;;;5.60;;
68806;SDS011;55800;54.272;18.558;2022-12-29T11:37:02;11.88;;;5.45;;
68806;SDS011;55800;54.272;18.558;2022-12-29T11:39:37;8.35;;;5.80;;
68806;SDS011;55800;54.272;18.558;2022-12-29T11:42:13;12.07;;;5.13;;
68806;SDS011;55800;54.272;18.558;2022-12-29T11:44:45;10.90;;;6.50;;
68806;SDS011;55800;54.272;18.558;2022-12-29T11:47:21;13.05;;;8.15;;
68806;SDS011;55800;54.272;18.558;2022-12-29T11:49:56;8.13;;;5.75;;
68806;SDS011;55800;54.272;18.558;2022-12-29T11:52:29;11.85;;;6.13;;
68806;SDS011;55800;54.272;18.558;2022-12-29T11:55:05;12.60;;;5.43;;
68806;SDS011;55800;54.272;18.558;2022-12-29T11:57:47;11.98;;;7.00;;
68806;SDS011;55800;54.272;18.558;2022-12-29T12:00:19;9.63;;;5.90;;
68806;SDS011;55800;54.272;18.558;2022-12-29T12:02:53;8.98;;;5.68;;
68806;SDS011;55800;54.272;18.558;2022-12-29T12:05:28;10.48;;;5.93;;
68806;SDS011;55800;54.272;18.558;2022-12-29T12:08:08;7.32;;;5.20;;
68806;SDS011;55800;54.272;18.558;2022-12-29T12:10:50;9.32;;;5.85;;
68806;SDS011;55800;54.272;18.558;2022-12-29T12:13:28;7.00;;;4.38;;
68806;SDS011;55800;54.272;18.558;2022-12-29T12:16:02;12.48;;;5.47;;
68806;SDS011;55800;54.272;18.558;2022-12-29T12:18:40;11.68;;;5.32;;
68806;SDS011;55800;54.272;18.558;2022-12-29T12:21:18;9.13;;;5.50;;
68806;SDS011;55800;54.272;18.558;2022-12-29T12:24:07;10.57;;;5.40;;
68806;SDS011;55800;54.272;18.558;2022-12-29T12:26:57;9.88;;;5.78;;
68806;SDS011;55800;54.272;18.558;2022-12-29T12:29:33;9.23;;;6.07;;
68806;SDS011;55800;54.272;18.558;2022-12-29T12:32:08;11.02;;;4.88;;
68806;SDS011;55800;54.272;18.558;2022-12-29T12:34:42;8.25;;;5.22;;
68806;SDS011;55800;54.272;18.558;2022-12-29T12:37:21;11.07;;;5.80;;
68806;SDS011;55800;54.272;18.558;2022-12-29T12:40:15;10.40;;;5.63;;
68806;SDS011;55800;54.272;18.558;2022-12-29T12:43:10;9.10;;;5.97;;
68806;SDS011;55800;54.272;18.558;2022-12-29T12:46:09;8.38;;;5.18;;
68806;SDS011;55800;54.272;18.558;2022-12-29T12:48:52;9.65;;;5.60;;
68806;SDS011;55800;54.272;18.558;2022-12-29T12:51:33;11.23;;;6.10;;
68806;SDS011;55800;54.272;18.558;2022-12-29T12:54:14;8.98;;;5.05;;
68806;SDS011;55800;54.272;18.558;2022-12-29T12:57:05;14.05;;;7.68;;
68806;SDS011;55800;54.272;18.558;2022-12-29T12:59:47;10.25;;;5.82;;
68806;SDS011;55800;54.272;18.558;2022-12-29T13:02:31;7.47;;;5.55;;
68806;SDS011;55800;54.272;18.558;2022-12-29T13:08:21;9.68;;;5.55;;
68806;SDS011;55800;54.272;18.558;2022-12-29T13:11:23;9.65;;;5.35;;
68806;SDS011;55800;54.272;18.558;2022-12-29T13:14:09;9.32;;;5.35;;
68806;SDS011;55800;54.272;18.558;2022-12-29T13:16:53;8.35;;;4.80;;
68806;SDS011;55800;54.272;18.558;2022-12-29T13:19:29;7.70;;;4.82;;
68806;SDS011;55800;54.272;18.558;2022-12-29T13:22:05;9.23;;;5.32;;
68806;SDS011;55800;54.272;18.558;2022-12-29T13:24:45;11.50;;;5.82;;
68806;SDS011;55800;54.272;18.558;2022-12-29T13:27:22;9.13;;;5.93;;
68806;SDS011;55800;54.272;18.558;2022-12-29T13:30:10;8.95;;;5.88;;
68806;SDS011;55800;54.272;18.558;2022-12-29T13:32:49;9.90;;;5.55;;
68806;SDS011;55800;54.272;18.558;2022-12-29T13:35:30;8.95;;;4.78;;
68806;SDS011;55800;54.272;18.558;2022-12-29T13:38:17;10.05;;;5.57;;
68806;SDS011;55800;54.272;18.558;2022-12-29T13:40:51;9.30;;;5.35;;
68806;SDS011;55800;54.272;18.558;2022-12-29T13:43:23;11.23;;;5.97;;
68806;SDS011;55800;54.272;18.558;2022-12-29T13:46:00;7.45;;;4.18;;
68806;SDS011;55800;54.272;18.558;2022-12-29T13:48:39;11.43;;;4.85;;
68806;SDS011;55800;54.272;18.558;2022-12-29T13:51:14;8.45;;;4.85;;
68806;SDS011;55800;54.272;18.558;2022-12-29T13:53:56;8.75;;;4.45;;
68806;SDS011;55800;54.272;18.558;2022-12-29T13:56:34;8.40;;;5.10;;
68806;SDS011;55800;54.272;18.558;2022-12-29T13:59:14;9.95;;;5.18;;
68806;SDS011;55800;54.272;18.558;2022-12-29T14:01:50;7.97;;;5.07;;
68806;SDS011;55800;54.272;18.558;2022-12-29T14:04:27;8.73;;;4.40;;
68806;SDS011;55800;54.272;18.558;2022-12-29T14:07:01;9.38;;;4.97;;
68806;SDS011;55800;54.272;18.558;2022-12-29T14:09:40;11.93;;;6.05;;
68806;SDS011;55800;54.272;18.558;2022-12-29T14:12:20;9.40;;;4.57;;
68806;SDS011;55800;54.272;18.558;2022-12-29T14:15:15;8.35;;;4.82;;
68806;SDS011;55800;54.272;18.558;2022-12-29T14:20:56;8.50;;;4.75;;
68806;SDS011;55800;54.272;18.558;2022-12-29T14:23:38;8.07;;;4.47;;
68806;SDS011;55800;54.272;18.558;2022-12-29T14:26:10;10.43;;;5.40;;
68806;SDS011;55800;54.272;18.558;2022-12-29T14:28:44;9.88;;;4.93;;
68806;SDS011;55800;54.272;18.558;2022-12-29T14:31:33;10.30;;;4.85;;
68806;SDS011;55800;54.272;18.558;2022-12-29T14:37:21;11.70;;;5.60;;
68806;SDS011;55800;54.272;18.558;2022-12-29T14:42:44;8.05;;;5.80;;
68806;SDS011;55800;54.272;18.558;2022-12-29T14:45:25;9.23;;;5.50;;
68806;SDS011;55800;54.272;18.558;2022-12-29T14:47:56;10.80;;;6.47;;
68806;SDS011;55800;54.272;18.558;2022-12-29T14:50:30;11.13;;;5.88;;
68806;SDS011;55800;54.272;18.558;2022-12-29T14:53:40;9.85;;;5.70;;
68806;SDS011;55800;54.272;18.558;2022-12-29T14:56:10;12.27;;;5.32;;
68806;SDS011;55800;54.272;18.558;2022-12-29T14:58:43;11.65;;;6.50;;
68806;SDS011;55800;54.272;18.558;2022-12-29T15:01:20;11.60;;;5.95;;
68806;SDS011;55800;54.272;18.558;2022-12-29T15:03:56;11.73;;;7.15;;
68806;SDS011;55800;54.272;18.558;2022-12-29T15:06:31;8.80;;;5.78;;
68806;SDS011;55800;54.272;18.558;2022-12-29T15:09:12;12.05;;;6.90;;
68806;SDS011;55800;54.272;18.558;2022-12-29T15:11:51;10.88;;;5.70;;
68806;SDS011;55800;54.272;18.558;2022-12-29T15:14:28;13.55;;;6.35;;
68806;SDS011;55800;54.272;18.558;2022-12-29T15:17:09;11.35;;;6.30;;
68806;SDS011;55800;54.272;18.558;2022-12-29T15:19:50;9.73;;;6.13;;
68806;SDS011;55800;54.272;18.558;2022-12-29T15:27:21;12.65;;;6.50;;
68806;SDS011;55800;54.272;18.558;2022-12-29T15:29:55;14.98;;;5.93;;
68806;SDS011;55800;54.272;18.558;2022-12-29T15:32:27;11.85;;;5.60;;
68806;SDS011;55800;54.272;18.558;2022-12-29T15:34:58;9.60;;;5.63;;
68806;SDS011;55800;54.272;18.558;2022-12-29T15:37:32;11.48;;;6.10;;
68806;SDS011;55800;54.272;18.558;2022-12-29T15:40:19;9.25;;;5.57;;
68806;SDS011;55800;54.272;18.558;2022-12-29T15:42:54;11.13;;;5.90;;
68806;SDS011;55800;54.272;18.558;2022-12-29T15:45:34;9.68;;;5.70;;
68806;SDS011;55800;54.272;18.558;2022-12-29T15:48:04;11.10;;;6.28;;
68806;SDS011;55800;54.272;18.558;2022-12-29T15:50:41;16.92;;;7.22;;
68806;SDS011;55800;54.272;18.558;2022-12-29T15:53:11;11.68;;;6.75;;
68806;SDS011;55800;54.272;18.558;2022-12-29T15:55:48;10.38;;;6.53;;
68806;SDS011;55800;54.272;18.558;2022-12-29T15:58:19;10.10;;;6.57;;
68806;SDS011;55800;54.272;18.558;2022-12-29T16:00:50;11.40;;;5.63;;
68806;SDS011;55800;54.272;18.558;2022-12-29T16:03:22;10.10;;;5.88;;
68806;SDS011;55800;54.272;18.558;2022-12-29T16:05:54;14.02;;;6.03;;
68806;SDS011;55800;54.272;18.558;2022-12-29T16:08:28;10.40;;;6.28;;
68806;SDS011;55800;54.272;18.558;2022-12-29T16:11:03;9.43;;;5.57;;
68806;SDS011;55800;54.272;18.558;2022-12-29T16:13:47;10.52;;;6.40;;